Time;durP1;ratioP1;P1;durP2;ratioP2;P2;SDS_P1;SDS_P2;PMS_P1;PMS_P2;Temp;Humidity;BMP_temperature;BMP_pressure;BME280_temperature;BME280_humidity;BME280_pressure;Samples;Min_cycle;Max_cycle;Signal;HPM_P1;HPM_P2
2023/10/07 00:01:27;;;;;;;13.27;5.75;;;;;;;13.60;100.00;101904.84;5088317;28;20048;-47
2023/10/07 00:03:58;;;;;;;15.15;6.30;;;;;;;13.62;100.00;101903.00;5090271;28;20040;-45
2023/10/07 00:06:28;;;;;;;12.43;6.18;;;;;;;13.64;100.00;101890.50;5088095;28;20052;-49
2023/10/07 00:08:58;;;;;;;15.40;6.53;;;;;;;13.59;100.00;101889.94;5087103;28;20040;-46
2023/10/07 00:11:27;;;;;;;18.17;6.57;;;;;;;13.58;100.00;101887.38;5086993;28;20127;-46
2023/10/07 00:13:56;;;;;;;13.23;5.82;;;;;;;13.56;100.00;101892.78;5088194;28;20081;-49
2023/10/07 00:16:26;;;;;;;14.27;6.28;;;;;;;13.58;100.00;101908.53;5085786;28;20056;-47
2023/10/07 00:18:56;;;;;;;13.73;6.30;;;;;;;13.58;100.00;101927.91;5087160;28;20040;-46
2023/10/07 00:21:27;;;;;;;16.63;6.20;;;;;;;13.59;100.00;101923.44;5085702;28;20051;-44
2023/10/07 00:23:57;;;;;;;12.00;6.10;;;;;;;13.60;100.00;101933.09;5088050;28;20052;-47
2023/10/07 00:26:27;;;;;;;19.65;6.63;;;;;;;13.60;100.00;101933.94;5086539;28;20036;-47
2023/10/07 00:29:00;;;;;;;13.80;5.97;;;;;;;13.59;100.00;101918.16;5087472;28;20043;-45
2023/10/07 00:31:33;;;;;;;13.70;6.70;;;;;;;13.62;100.00;101915.34;5087346;28;20131;-45
2023/10/07 00:34:11;;;;;;;;;;;;;;;13.66;100.00;101917.72;5088024;28;20044;-48
2023/10/07 00:36:43;;;;;;;15.43;6.57;;;;;;;13.69;100.00;101914.03;5087673;28;19959;-49
2023/10/07 00:39:20;;;;;;;13.43;6.35;;;;;;;13.69;100.00;101914.88;5088882;28;20052;-47
2023/10/07 00:41:54;;;;;;;16.95;6.82;;;;;;;13.68;100.00;101907.88;5088008;28;20063;-46
2023/10/07 00:44:22;;;;;;;17.15;7.10;;;;;;;13.69;100.00;101914.03;5087031;28;20047;-48
2023/10/07 00:47:12;;;;;;;16.52;6.30;;;;;;;13.67;100.00;101911.50;5088368;28;20044;-46
2023/10/07 00:49:42;;;;;;;14.00;6.35;;;;;;;13.67;100.00;101919.41;5092164;28;20151;-47
2023/10/07 00:52:13;;;;;;;15.95;6.47;;;;;;;13.67;100.00;101919.41;5093752;28;20047;-48
2023/10/07 00:54:50;;;;;;;14.82;6.68;;;;;;;13.65;100.00;101913.34;5094998;28;20048;-46
2023/10/07 00:57:28;;;;;;;12.95;6.60;;;;;;;13.66;100.00;101909.78;5090515;28;20052;-47
2023/10/07 00:59:57;;;;;;;15.75;7.28;;;;;;;13.65;100.00;101918.66;5090760;28;20040;-46
2023/10/07 01:02:30;;;;;;;13.52;7.28;;;;;;;13.63;100.00;101906.47;5090665;28;20044;-47
2023/10/07 01:05:06;;;;;;;16.98;6.65;;;;;;;13.63;100.00;101915.25;5092490;28;20742;-46
2023/10/07 01:07:35;;;;;;;15.85;7.05;;;;;;;13.62;100.00;101913.56;5094518;28;20048;-47
2023/10/07 01:10:13;;;;;;;15.15;6.88;;;;;;;13.65;100.00;101904.59;5090677;28;20040;-46
2023/10/07 01:12:42;;;;;;;14.73;6.70;;;;;;;13.62;100.00;101910.91;5089622;28;20060;-46
2023/10/07 01:15:22;;;;;;;15.93;7.50;;;;;;;13.60;100.00;101920.72;5091190;28;20071;-46
2023/10/07 01:17:57;;;;;;;12.10;6.95;;;;;;;13.61;100.00;101909.22;5093472;28;20058;-46
2023/10/07 01:20:34;;;;;;;19.17;7.25;;;;;;;13.62;100.00;101897.69;5090519;28;20044;-46
2023/10/07 01:23:07;;;;;;;18.65;7.72;;;;;;;13.59;100.00;101892.56;5090397;28;20044;-46
2023/10/07 01:25:42;;;;;;;14.93;7.50;;;;;;;13.56;100.00;101894.59;5090183;28;20047;-46
2023/10/07 01:28:14;;;;;;;15.00;7.05;;;;;;;13.53;100.00;101898.25;5093633;28;20056;-48
2023/10/07 01:30:59;;;;;;;16.58;7.28;;;;;;;13.55;100.00;101912.22;5090405;28;20047;-47
2023/10/07 01:33:35;;;;;;;14.18;7.28;;;;;;;13.51;100.00;101905.41;5091814;28;20044;-47
2023/10/07 01:36:08;;;;;;;17.48;7.22;;;;;;;13.51;100.00;101903.63;5094367;28;20123;-48
2023/10/07 01:38:43;;;;;;;;;;;;;;;13.49;100.00;101904.66;5091857;28;20048;-47
2023/10/07 01:41:18;;;;;;;13.15;7.20;;;;;;;13.46;100.00;101912.78;5088873;28;19928;-45
2023/10/07 01:43:56;;;;;;;15.35;8.30;;;;;;;13.49;100.00;101909.97;5090265;28;20392;-47
2023/10/07 01:46:27;;;;;;;17.38;8.10;;;;;;;13.45;100.00;101908.44;5090026;28;20503;-48
2023/10/07 01:48:57;;;;;;;15.00;8.00;;;;;;;13.44;100.00;101901.44;5090481;28;20425;-48
2023/10/07 01:51:28;;;;;;;18.65;9.45;;;;;;;13.44;100.00;101899.69;5089964;28;20135;-49
2023/10/07 01:54:02;;;;;;;18.50;8.48;;;;;;;13.45;100.00;101906.63;5090484;28;20055;-47
2023/10/07 01:56:32;;;;;;;18.38;9.65;;;;;;;13.48;100.00;101900.31;5089201;28;21097;-46
2023/10/07 01:59:17;;;;;;;16.95;9.55;;;;;;;13.50;100.00;101898.44;5087115;28;20499;-48
2023/10/07 02:01:53;;;;;;;17.65;8.73;;;;;;;13.49;100.00;101897.59;5089963;28;20055;-46
2023/10/07 02:04:26;;;;;;;19.27;10.15;;;;;;;13.52;100.00;101891.25;5088534;28;20106;-46
2023/10/07 02:06:57;;;;;;;19.30;10.23;;;;;;;13.53;100.00;101890.31;5089584;28;20457;-48
2023/10/07 02:09:29;;;;;;;18.48;9.88;;;;;;;13.53;100.00;101877.94;5089787;28;20422;-45
2023/10/07 02:12:00;;;;;;;21.73;10.20;;;;;;;13.57;100.00;101886.56;5087614;28;20054;-46
2023/10/07 02:14:29;;;;;;;18.95;9.73;;;;;;;13.57;100.00;101883.06;5092869;28;20040;-46
2023/10/07 02:16:59;;;;;;;17.73;9.95;;;;;;;13.58;100.00;101875.03;5089557;28;20131;-48
2023/10/07 02:19:29;;;;;;;17.48;10.13;;;;;;;13.59;100.00;101882.00;5091563;28;20072;-48
2023/10/07 02:22:00;;;;;;;18.48;10.40;;;;;;;13.60;100.00;101885.53;5090706;28;20056;-46
2023/10/07 02:24:31;;;;;;;19.17;10.63;;;;;;;13.58;100.00;101880.34;5089562;28;20093;-46
2023/10/07 02:27:01;;;;;;;21.48;11.20;;;;;;;13.59;100.00;101882.00;5088819;28;20445;-46
2023/10/07 02:29:29;;;;;;;19.38;11.38;;;;;;;13.62;100.00;101888.91;5093229;28;20474;-45
2023/10/07 02:32:07;;;;;;;18.40;11.02;;;;;;;13.62;100.00;101883.63;5093198;28;20089;-49
2023/10/07 02:34:51;;;;;;;20.92;10.95;;;;;;;13.65;100.00;101884.28;5093265;28;20049;-46
2023/10/07 02:37:21;;;;;;;20.20;10.60;;;;;;;13.68;100.00;101868.22;5088748;28;20043;-45
2023/10/07 02:39:56;;;;;;;20.25;11.07;;;;;;;13.65;100.00;101878.16;5089359;28;20052;-46
2023/10/07 02:42:28;;;;;;;21.23;11.23;;;;;;;13.65;100.00;101878.16;5088178;28;20060;-47
2023/10/07 02:45:11;;;;;;;24.65;11.77;;;;;;;13.65;100.00;101876.34;5089397;28;20119;-46
2023/10/07 02:47:39;;;;;;;24.10;11.50;;;;;;;13.73;100.00;101870.59;5092803;28;20052;-45
2023/10/07 02:50:08;;;;;;;21.98;11.35;;;;;;;13.77;100.00;101874.75;5091803;28;20044;-47
2023/10/07 02:52:39;;;;;;;20.42;11.48;;;;;;;13.80;100.00;101873.72;5089188;28;20689;-48
2023/10/07 02:55:28;;;;;;;21.70;11.73;;;;;;;13.77;100.00;101874.75;5088403;28;20126;-45
2023/10/07 02:57:56;;;;;;;23.42;11.57;;;;;;;13.81;100.00;101862.16;5088460;28;20071;-47
2023/10/07 03:00:35;;;;;;;23.25;12.25;;;;;;;13.78;100.00;101857.09;5088315;28;20517;-46
2023/10/07 03:03:20;;;;;;;19.35;10.70;;;;;;;13.79;100.00;101869.38;5088348;28;20513;-46
2023/10/07 03:05:58;;;;;;;21.33;11.23;;;;;;;13.78;100.00;101860.56;5089210;28;20076;-47
2023/10/07 03:11:13;;;;;;;21.10;11.95;;;;;;;13.81;100.00;101863.03;5085740;28;20509;-46
2023/10/07 03:13:45;;;;;;;20.67;12.70;;;;;;;13.82;100.00;101861.25;5091322;28;20056;-47
2023/10/07 03:16:29;;;;;;;;;;;;;;;13.87;100.00;101859.16;5091885;28;20499;-50
2023/10/07 03:19:06;;;;;;;24.17;11.85;;;;;;;13.85;100.00;101871.59;5088664;28;19924;-46
2023/10/07 03:24:39;;;;;;;22.58;11.98;;;;;;;13.86;100.00;101882.13;5089588;28;20040;-46
2023/10/07 03:27:20;;;;;;;19.42;12.13;;;;;;;13.92;100.00;101880.88;5085593;28;20044;-47
2023/10/07 03:30:00;;;;;;;25.65;13.18;;;;;;;13.91;100.00;101876.53;5089891;28;20059;-46
2023/10/07 03:32:32;;;;;;;24.33;12.38;;;;;;;13.90;100.00;101877.47;5087951;28;20044;-47
2023/10/07 03:35:11;;;;;;;22.70;12.70;;;;;;;13.92;100.00;101880.00;5088496;28;20047;-47
2023/10/07 03:37:45;;;;;;;27.67;14.23;;;;;;;13.90;100.00;101877.47;5088640;28;20082;-47
2023/10/07 03:40:25;;;;;;;20.77;13.15;;;;;;;13.91;100.00;101865.94;5089274;28;20075;-46
2023/10/07 03:42:55;;;;;;;27.80;13.10;;;;;;;13.93;100.00;101866.69;5087285;28;20060;-46
2023/10/07 03:45:27;;;;;;;22.00;13.13;;;;;;;13.94;100.00;101868.41;5090732;28;20519;-46
2023/10/07 03:47:55;;;;;;;28.00;13.65;;;;;;;13.94;100.00;101863.09;5091791;28;20051;-46
2023/10/07 03:50:34;;;;;;;23.77;13.38;;;;;;;14.00;100.00;101868.03;5091182;28;20458;-47
2023/10/07 03:53:05;;;;;;;22.60;13.05;;;;;;;13.99;100.00;101862.84;5087929;28;20052;-47
2023/10/07 03:55:37;;;;;;;23.90;13.52;;;;;;;14.01;100.00;101861.75;5086924;28;20040;-46
2023/10/07 03:58:12;;;;;;;23.27;14.07;;;;;;;14.03;100.00;101866.97;5087472;28;20502;-46
2023/10/07 04:00:46;;;;;;;25.23;14.13;;;;;;;14.04;100.00;101866.00;5086828;28;20127;-45
2023/10/07 04:03:15;;;;;;;25.73;14.30;;;;;;;14.07;100.00;101864.97;5087526;28;20127;-45
2023/10/07 04:05:49;;;;;;;27.70;14.00;;;;;;;14.11;100.00;101858.53;5086852;28;20160;-47
2023/10/07 04:08:18;;;;;;;29.58;14.18;;;;;;;14.09;100.00;101858.63;5087624;28;20052;-46
2023/10/07 04:10:47;;;;;;;27.40;14.82;;;;;;;14.12;100.00;101847.00;5086859;28;20043;-44
2023/10/07 04:13:22;;;;;;;24.63;14.48;;;;;;;14.11;100.00;101850.59;5087571;28;20040;-47
2023/10/07 04:15:53;;;;;;;25.63;13.73;;;;;;;14.13;100.00;101844.25;5087775;28;20048;-46
2023/10/07 04:18:34;;;;;;;26.48;14.27;;;;;;;14.13;100.00;101846.06;5087500;28;20093;-46
2023/10/07 04:21:03;;;;;;;25.92;14.70;;;;;;;14.14;100.00;101847.78;5087527;28;20576;-47
2023/10/07 04:23:31;;;;;;;29.88;14.40;;;;;;;14.13;100.00;101843.44;5091654;28;20861;-47
2023/10/07 04:26:08;;;;;;;24.52;13.80;;;;;;;14.15;100.00;101847.69;5090539;28;20129;-46
2023/10/07 04:28:39;;;;;;;23.42;14.15;;;;;;;14.19;100.00;101848.31;5091878;28;20451;-47
2023/10/07 04:31:11;;;;;;;29.63;15.02;;;;;;;14.19;100.00;101843.00;5091114;28;20040;-45
2023/10/07 04:33:47;;;;;;;25.02;14.77;;;;;;;14.18;100.00;101849.28;5090730;28;20059;-44
2023/10/07 04:36:31;;;;;;;26.20;13.50;;;;;;;14.17;100.00;101852.88;5091105;28;20478;-46
2023/10/07 04:39:17;;;;;;;23.45;15.48;;;;;;;14.20;100.00;101857.94;5091954;28;20068;-47
2023/10/07 04:41:56;;;;;;;24.65;15.20;;;;;;;14.22;100.00;101861.34;5090574;28;20048;-46
2023/10/07 04:47:29;;;;;;;28.85;15.48;;;;;;;14.24;100.00;101853.31;5092376;28;20056;-47
2023/10/07 04:50:00;;;;;;;24.98;15.48;;;;;;;14.23;100.00;101859.56;5091774;28;20406;-48
2023/10/07 04:52:30;;;;;;;26.15;15.48;;;;;;;14.25;100.00;101857.63;5090455;28;20459;-48
2023/10/07 04:54:58;;;;;;;25.13;14.25;;;;;;;14.23;100.00;101855.09;5090741;28;20119;-45
2023/10/07 04:57:44;;;;;;;27.30;15.57;;;;;;;14.24;100.00;101846.22;5090017;28;20055;-47
2023/10/07 05:00:27;;;;;;;23.05;15.15;;;;;;;14.27;100.00;101855.75;5090592;28;20055;-48
2023/10/07 05:02:59;;;;;;;26.60;15.52;;;;;;;14.28;100.00;101854.81;5089267;28;20040;-49
2023/10/07 05:05:30;;;;;;;24.92;14.75;;;;;;;14.33;100.00;101855.38;5090608;28;20403;-46
2023/10/07 05:08:03;;;;;;;27.38;15.13;;;;;;;14.32;100.00;101851.03;5090566;28;20399;-47
2023/10/07 05:10:38;;;;;;;28.52;16.15;;;;;;;14.30;100.00;101852.91;5089880;28;20083;-45
2023/10/07 05:13:07;;;;;;;24.00;15.38;;;;;;;14.29;100.00;101849.41;5093015;28;20040;-48
2023/10/07 05:15:39;;;;;;;28.48;15.10;;;;;;;14.30;100.00;101850.25;5094064;28;20040;-48
2023/10/07 05:18:07;;;;;;;29.40;15.20;;;;;;;14.31;100.00;101855.44;5090517;28;20097;-46
2023/10/07 05:20:37;;;;;;;24.13;15.50;;;;;;;14.32;100.00;101865.09;5092201;28;20472;-46
2023/10/07 05:23:06;;;;;;;27.88;16.30;;;;;;;14.31;100.00;101860.75;5091829;28;20399;-46
2023/10/07 05:25:37;;;;;;;28.23;15.50;;;;;;;14.30;100.00;101860.84;5087936;28;20461;-44
2023/10/07 05:28:10;;;;;;;24.38;16.55;;;;;;;14.37;100.00;101843.63;5094100;28;20044;-46
2023/10/07 05:30:44;;;;;;;31.00;16.58;;;;;;;14.32;100.00;101838.63;5094179;28;20059;-45
2023/10/07 05:33:13;;;;;;;26.45;16.23;;;;;;;14.33;100.00;101835.03;5090872;28;20048;-47
2023/10/07 05:35:43;;;;;;;29.58;17.45;;;;;;;14.34;100.00;101846.47;5090819;28;20036;-47
2023/10/07 05:38:11;;;;;;;27.42;16.73;;;;;;;14.34;100.00;101841.16;5089336;28;20055;-46
2023/10/07 05:40:40;;;;;;;28.60;18.38;;;;;;;14.41;100.00;101844.28;5089177;28;20056;-47
2023/10/07 05:43:09;;;;;;;31.60;16.70;;;;;;;14.34;100.00;101842.03;5090659;28;20118;-49
2023/10/07 05:45:37;;;;;;;33.03;18.05;;;;;;;14.33;100.00;101840.34;5092160;28;20055;-46
2023/10/07 05:48:07;;;;;;;31.40;18.52;;;;;;;14.37;100.00;101835.69;5089780;28;20059;-48
2023/10/07 05:50:36;;;;;;;29.77;18.13;;;;;;;14.34;100.00;101836.75;5090285;28;20922;-48
2023/10/07 05:53:05;;;;;;;30.63;18.40;;;;;;;14.38;100.00;101842.66;5093157;28;20055;-46
2023/10/07 05:55:35;;;;;;;28.15;18.35;;;;;;;14.39;100.00;101847.03;5092192;28;20537;-49
2023/10/07 05:58:04;;;;;;;30.20;18.85;;;;;;;14.43;100.00;101852.97;5089674;28;20048;-45
2023/10/07 06:00:32;;;;;;;28.10;18.75;;;;;;;14.43;100.00;101851.16;5089443;28;20387;-45
2023/10/07 06:03:05;;;;;;;31.92;18.98;;;;;;;14.45;100.00;101865.16;5089797;28;20383;-45
2023/10/07 06:05:37;;;;;;;29.95;18.33;;;;;;;14.50;100.00;101864.84;5091688;28;20129;-46
2023/10/07 06:08:07;;;;;;;28.00;18.67;;;;;;;14.52;100.00;101855.03;5093034;28;20817;-47
2023/10/07 06:10:37;;;;;;;27.08;19.17;;;;;;;14.51;100.00;101867.38;5088702;28;20152;-47
2023/10/07 06:13:08;;;;;;;33.70;19.10;;;;;;;14.56;100.00;101871.53;5089597;28;20040;-45
2023/10/07 06:15:38;;;;;;;32.20;18.27;;;;;;;14.62;100.00;101871.13;5089928;28;20093;-46
2023/10/07 06:18:07;;;;;;;33.95;18.88;;;;;;;14.59;100.00;101866.88;5088930;28;20509;-47
2023/10/07 06:20:38;;;;;;;28.42;19.85;;;;;;;14.66;100.00;101870.84;5088826;28;20080;-46
2023/10/07 06:23:14;;;;;;;28.00;19.08;;;;;;;14.67;100.00;101867.25;5087884;28;20052;-46
2023/10/07 06:25:48;;;;;;;30.30;18.85;;;;;;;14.70;100.00;101864.41;5088702;28;20131;-47
2023/10/07 06:28:29;;;;;;;30.75;18.25;;;;;;;14.74;100.00;101867.72;5092228;28;20094;-45
2023/10/07 06:31:01;;;;;;;35.20;19.58;;;;;;;14.74;100.00;101877.44;5092330;28;20166;-46
2023/10/07 06:33:31;;;;;;;32.00;18.75;;;;;;;14.80;100.00;101887.63;5087792;28;20083;-46
2023/10/07 06:36:01;;;;;;;33.97;18.40;;;;;;;14.83;100.00;101883.00;5088993;28;20059;-49
2023/10/07 06:38:33;;;;;;;30.30;19.45;;;;;;;14.87;100.00;101886.25;5089133;28;20040;-46
2023/10/07 06:41:09;;;;;;;30.27;18.23;;;;;;;14.94;100.00;101878.75;5090713;28;20044;-49
2023/10/07 06:43:41;;;;;;;27.33;17.92;;;;;;;14.95;100.00;101876.00;5088871;28;20986;-50
2023/10/07 06:46:11;;;;;;;29.45;18.15;;;;;;;14.95;100.00;101870.69;5087449;28;20377;-46
2023/10/07 06:48:39;;;;;;;26.10;17.83;;;;;;;14.97;100.00;101867.94;5089657;28;20036;-49
2023/10/07 06:51:11;;;;;;;30.77;18.80;;;;;;;15.00;100.00;101868.59;5088743;28;20507;-47
2023/10/07 06:53:42;;;;;;;29.08;18.73;;;;;;;15.03;100.00;101873.69;5089501;28;20048;-46
2023/10/07 06:56:20;;;;;;;28.85;17.60;;;;;;;15.09;100.00;101882.16;5088914;28;20491;-47
2023/10/07 06:58:53;;;;;;;27.83;16.73;;;;;;;15.16;100.00;101892.25;5090819;28;20071;-48
2023/10/07 07:01:49;;;;;;;31.55;18.90;;;;;;;15.20;100.00;101901.69;5088597;28;20044;-46
2023/10/07 07:04:21;;;;;;;29.38;17.23;;;;;;;15.24;100.00;101894.34;5091320;28;20119;-48
2023/10/07 07:07:09;;;;;;;27.83;17.03;;;;;;;15.29;100.00;101886.94;5088410;28;20044;-46
2023/10/07 07:12:27;;;;;;;29.73;18.10;;;;;;;15.41;100.00;101898.50;5081594;28;20047;-48
2023/10/07 07:15:04;;;;;;;33.70;17.25;;;;;;;15.42;100.00;101897.56;5090983;28;20047;-47
2023/10/07 07:17:44;;;;;;;30.70;17.90;;;;;;;15.46;100.00;101892.88;5088127;28;20131;-46
2023/10/07 07:20:33;;;;;;;29.08;17.85;;;;;;;15.50;100.00;101894.38;5090895;28;20052;-47
2023/10/07 07:23:04;;;;;;;31.85;18.60;;;;;;;15.53;100.00;101910.09;5090989;28;20040;-47
2023/10/07 07:25:39;;;;;;;31.00;16.90;;;;;;;15.54;100.00;101909.09;5087384;28;20048;-47
2023/10/07 07:28:09;;;;;;;22.88;16.67;;;;;;;15.65;100.00;101911.88;5090658;28;20056;-46
2023/10/07 07:30:38;;;;;;;27.33;15.65;;;;;;;15.62;100.00;101909.41;5090713;28;20510;-46
2023/10/07 07:33:11;;;;;;;27.20;16.05;;;;;;;15.64;100.00;101906.69;5092069;28;20048;-46
2023/10/07 07:35:43;;;;;;;26.08;15.43;;;;;;;15.63;100.00;101905.81;5091205;28;20453;-46
2023/10/07 07:38:26;;;;;;;26.45;15.27;;;;;;;15.68;100.00;101903.69;5087566;28;20036;-48
2023/10/07 07:41:09;;;;;;;28.35;15.70;;;;;;;15.67;100.00;101896.69;5090416;28;20054;-46
2023/10/07 07:43:39;;;;;;;28.88;15.88;;;;;;;15.71;100.00;101897.34;5091419;28;20762;-47
2023/10/07 07:46:26;;;;;;;24.90;15.60;;;;;;;15.75;100.00;101901.47;5090859;28;20055;-48
2023/10/07 07:48:55;;;;;;;25.35;14.35;;;;;;;15.74;100.00;101899.75;5088437;28;20074;-46
2023/10/07 07:51:25;;;;;;;26.55;14.93;;;;;;;15.74;100.00;101913.03;5087702;28;20040;-46
2023/10/07 07:53:54;;;;;;;25.15;13.93;;;;;;;15.78;100.00;101921.63;5090482;28;20067;-48
2023/10/07 07:56:22;;;;;;;23.42;14.25;;;;;;;15.79;100.00;101916.22;5085544;28;20052;-45
2023/10/07 07:58:52;;;;;;;23.73;14.15;;;;;;;15.80;100.00;101922.38;5087484;28;20133;-45
2023/10/07 08:01:28;;;;;;;24.67;14.32;;;;;;;15.83;100.00;101923.03;5087553;28;20054;-46
2023/10/07 08:03:59;;;;;;;23.75;14.52;;;;;;;15.84;100.00;101937.13;5088383;28;20056;-46
2023/10/07 08:06:28;;;;;;;23.23;13.18;;;;;;;15.85;100.00;101926.41;5087592;28;20127;-47
2023/10/07 08:08:58;;;;;;;22.40;13.43;;;;;;;15.84;100.00;101926.50;5091668;28;20372;-45
2023/10/07 08:11:26;;;;;;;26.92;14.02;;;;;;;15.82;100.00;101925.78;5088670;28;20048;-45
2023/10/07 08:13:54;;;;;;;22.83;13.90;;;;;;;15.82;100.00;101929.28;5087848;28;20063;-46
2023/10/07 08:16:25;;;;;;;22.58;14.05;;;;;;;15.83;100.00;101938.09;5087767;28;20044;-46
2023/10/07 08:18:54;;;;;;;22.05;14.05;;;;;;;15.86;100.00;101921.97;5087942;28;20083;-46
2023/10/07 08:21:29;;;;;;;22.65;13.70;;;;;;;15.93;100.00;101925.03;5087477;28;20054;-47
2023/10/07 08:24:01;;;;;;;22.50;14.50;;;;;;;16.00;100.00;101913.03;5089084;28;20103;-45
2023/10/07 08:26:34;;;;;;;22.50;12.93;;;;;;;16.14;100.00;101912.88;5091182;28;20044;-45
2023/10/07 08:29:04;;;;;;;23.77;13.68;;;;;;;16.34;100.00;101903.47;5091309;28;20048;-47
2023/10/07 08:31:43;;;;;;;26.90;13.18;;;;;;;16.39;100.00;101901.31;5090049;28;20101;-45
2023/10/07 08:34:13;;;;;;;23.25;13.98;;;;;;;16.54;100.00;101890.56;5091472;28;20052;-46
2023/10/07 08:36:44;;;;;;;23.77;13.30;;;;;;;16.68;100.00;101893.00;5091367;28;20040;-44
2023/10/07 08:39:17;;;;;;;19.75;12.80;;;;;;;16.81;100.00;101892.97;5091488;28;20043;-44
2023/10/07 08:41:52;;;;;;;21.27;12.05;;;;;;;16.98;100.00;101902.31;5086608;28;20056;-47
2023/10/07 08:44:29;;;;;;;21.52;12.60;;;;;;;17.16;100.00;101909.88;5086977;28;20127;-47
2023/10/07 08:47:04;;;;;;;17.95;11.82;;;;;;;17.28;100.00;101911.59;5089054;28;20517;-47
2023/10/07 08:49:35;;;;;;;20.00;11.50;;;;;;;17.45;100.00;101909.44;5091127;28;20097;-45
2023/10/07 08:52:08;;;;;;;21.17;12.07;;;;;;;17.54;100.00;101922.03;5091077;28;20048;-46
2023/10/07 08:54:44;;;;;;;19.77;10.85;;;;;;;17.66;100.00;101920.22;5088164;28;20052;-50
2023/10/07 08:57:18;;;;;;;16.08;10.10;;;;;;;17.82;100.00;101919.84;5087802;28;20063;-49
2023/10/07 08:59:49;;;;;;;22.48;10.45;;;;;;;17.96;100.00;101918.81;5088818;28;20051;-46
2023/10/07 09:05:09;;;;;;;18.90;10.00;;;;;;;18.19;100.00;101922.28;5088872;28;20079;-46
2023/10/07 09:07:38;;;;;;;17.73;10.45;;;;;;;18.29;100.00;101917.88;5087982;28;20426;-47
2023/10/07 09:10:10;;;;;;;20.75;10.15;;;;;;;18.44;100.00;101915.78;5090450;28;20770;-45
2023/10/07 09:12:46;;;;;;;18.48;9.98;;;;;;;18.51;100.00;101921.47;5090951;28;20118;-46
2023/10/07 09:15:25;;;;;;;20.85;10.13;;;;;;;18.58;100.00;101906.66;5091128;28;20043;-47
2023/10/07 09:18:01;;;;;;;18.42;9.63;;;;;;;18.69;100.00;101905.78;5093164;28;20055;-46
2023/10/07 09:20:31;;;;;;;16.25;10.13;;;;;;;18.80;100.00;101911.06;5089968;28;20048;-47
2023/10/07 09:23:06;;;;;;;17.05;9.05;;;;;;;18.98;100.00;101902.50;5091274;28;20117;-48
2023/10/07 09:25:36;;;;;;;17.38;9.63;;;;;;;18.99;100.00;101899.75;5090201;28;20055;-48
2023/10/07 09:28:07;;;;;;;21.33;10.50;;;;;;;19.02;100.00;101895.94;5090859;28;20036;-46
2023/10/07 09:30:37;;;;;;;20.50;10.00;;;;;;;19.22;100.00;101907.59;5090971;28;20040;-46
2023/10/07 09:33:13;;;;;;;18.23;9.82;;;;;;;19.37;100.00;101908.97;5090417;28;20063;-47
2023/10/07 09:35:43;;;;;;;16.33;9.60;;;;;;;19.57;100.00;101919.72;5091401;28;20048;-47
2023/10/07 09:38:26;;;;;;;15.05;8.68;;;;;;;19.65;100.00;101922.56;5094106;28;20523;-46
2023/10/07 09:41:23;;;;;;;15.68;8.90;;;;;;;19.86;100.00;101929.72;5093777;28;20044;-48
2023/10/07 09:43:51;;;;;;;17.20;7.97;;;;;;;19.99;100.00;101935.66;5093421;28;20055;-48
2023/10/07 09:46:27;;;;;;;18.00;8.45;;;;;;;20.00;100.00;101937.34;5093786;28;20078;-47
2023/10/07 09:49:06;;;;;;;14.63;8.30;;;;;;;20.08;100.00;101937.53;5092059;28;20048;-47
2023/10/07 09:51:41;;;;;;;16.45;7.95;;;;;;;20.11;100.00;101939.06;5093547;28;20112;-45
2023/10/07 09:54:36;;;;;;;17.23;8.13;;;;;;;20.24;100.00;101928.13;5093522;28;20035;-46
2023/10/07 09:57:20;;;;;;;15.30;7.53;;;;;;;20.22;100.00;101930.09;5088249;28;20623;-47
2023/10/07 10:00:37;;;;;;;13.50;7.47;;;;;;;20.23;100.00;101918.44;5089853;28;20356;-48
2023/10/07 10:03:13;;;;;;;17.98;7.40;;;;;;;20.17;100.00;101909.16;5089897;28;20117;-47
2023/10/07 10:06:03;;;;;;;14.13;7.38;;;;;;;20.34;100.00;101921.00;5090249;28;20075;-46
2023/10/07 10:08:55;;;;;;;14.95;7.00;;;;;;;20.64;100.00;101929.84;5089992;28;20526;-46
2023/10/07 10:11:31;;;;;;;14.68;7.13;;;;;;;20.79;100.00;101926.81;5088721;28;20048;-47
2023/10/07 10:14:16;;;;;;;13.50;6.97;;;;;;;21.07;100.00;101925.94;5089476;28;20048;-47
2023/10/07 10:16:51;;;;;;;14.15;6.85;;;;;;;20.96;100.00;101928.78;5089967;28;20059;-50
2023/10/07 10:19:28;;;;;;;13.77;6.90;;;;;;;20.92;100.00;101938.06;5087958;28;20050;-47
2023/10/07 10:22:10;;;;;;;12.88;5.85;;;;;;;20.83;100.00;101939.75;5089396;28;20147;-47
2023/10/07 10:24:42;;;;;;;15.77;6.68;;;;;;;20.92;100.00;101946.09;5088996;28;20060;-47
2023/10/07 10:27:11;;;;;;;13.57;6.60;;;;;;;20.92;100.00;101933.56;5088461;28;20406;-48
2023/10/07 10:29:55;;;;;;;14.30;6.28;;;;;;;21.16;100.00;101929.59;5090056;28;20042;-45
2023/10/07 10:32:28;;;;;;;13.75;7.07;;;;;;;21.19;100.00;101926.63;5089513;28;20051;-48
2023/10/07 10:35:03;;;;;;;14.38;6.75;;;;;;;21.30;100.00;101922.09;5088304;28;20054;-49
2023/10/07 10:37:31;;;;;;;15.93;7.30;;;;;;;21.32;100.00;101909.44;5089259;28;20044;-47
2023/10/07 10:40:05;;;;;;;13.95;6.60;;;;;;;21.50;100.00;101915.72;5089016;28;20044;-46
2023/10/07 10:42:41;;;;;;;16.40;7.25;;;;;;;21.85;100.00;101919.53;5088189;28;20079;-48
2023/10/07 10:45:19;;;;;;;12.07;5.70;;;;;;;22.10;100.00;101920.69;5092014;28;20044;-47
2023/10/07 10:47:50;;;;;;;15.55;6.28;;;;;;;22.09;100.00;101923.53;5089372;28;20067;-47
2023/10/07 10:50:24;;;;;;;12.55;6.00;;;;;;;22.29;100.00;101918.84;5090670;28;20132;-50
2023/10/07 10:52:54;;;;;;;12.73;5.90;;;;;;;22.54;100.00;101920.00;5089797;28;20542;-48
2023/10/07 10:55:25;;;;;;;18.00;6.18;;;;;;;22.62;100.00;101919.25;5087635;28;20080;-44
2023/10/07 10:57:54;;;;;;;18.65;6.15;;;;;;;22.67;100.00;101918.75;5088671;28;20135;-46
2023/10/07 11:00:24;;;;;;;10.70;5.22;;;;;;;22.89;100.00;101930.84;5090569;28;20040;-49
2023/10/07 11:02:53;;;;;;;13.98;5.68;;;;;;;22.88;100.00;101929.19;5092690;28;20042;-49
2023/10/07 11:05:22;;;;;;;12.35;5.43;;;;;;;22.79;100.00;101929.09;5092555;28;20127;-46
2023/10/07 11:07:50;;;;;;;15.55;5.30;;;;;;;22.92;100.00;101935.91;5092210;28;20036;-45
2023/10/07 11:10:22;;;;;;;17.73;6.03;;;;;;;23.13;100.00;101927.53;5092433;28;20060;-46
2023/10/07 11:12:52;;;;;;;11.27;5.10;;;;;;;23.08;100.00;101932.50;5092313;28;20424;-49
2023/10/07 11:15:25;;;;;;;13.02;5.05;;;;;;;23.39;100.00;101927.53;5090886;28;20056;-45
2023/10/07 11:17:57;;;;;;;13.55;4.45;;;;;;;23.63;100.00;101926.84;5090694;28;20143;-45
2023/10/07 11:20:32;;;;;;;14.68;5.13;;;;;;;23.44;100.00;101927.09;5092233;28;20048;-45
2023/10/07 11:23:02;;;;;;;16.42;5.30;;;;;;;23.41;100.00;101935.44;5092157;28;20054;-45
2023/10/07 11:25:30;;;;;;;12.32;5.00;;;;;;;23.45;100.00;101929.59;5092025;28;20135;-47
2023/10/07 11:27:58;;;;;;;13.55;5.15;;;;;;;23.53;100.00;101936.88;5091990;28;20461;-45
2023/10/07 11:30:26;;;;;;;15.10;4.90;;;;;;;23.73;100.00;101933.94;5090515;28;20138;-46
2023/10/07 11:32:57;;;;;;;13.10;5.13;;;;;;;23.93;100.00;101932.72;5091956;28;20048;-44
2023/10/07 11:35:28;;;;;;;13.60;5.25;;;;;;;23.96;100.00;101928.88;5092093;28;20055;-45
2023/10/07 11:38:02;;;;;;;11.13;5.20;;;;;;;24.07;100.00;101925.88;5092047;28;20044;-48
2023/10/07 11:40:32;;;;;;;13.82;5.13;;;;;;;24.11;100.00;101937.97;5086463;28;20076;-46
2023/10/07 11:43:04;;;;;;;12.23;4.57;;;;;;;24.29;100.00;101934.34;5087970;28;20052;-45
2023/10/07 11:45:36;;;;;;;12.60;5.07;;;;;;;23.89;100.00;101933.22;5091823;28;20052;-47
2023/10/07 11:48:08;;;;;;;12.20;4.88;;;;;;;23.69;100.00;101925.34;5091608;28;20052;-47
2023/10/07 11:50:36;;;;;;;;;;;;;;;24.04;100.00;101928.06;5092400;28;20113;-49